Time;durP1;ratioP1;P1;durP2;ratioP2;P2;SDS_P1;SDS_P2;PMS_P1;PMS_P2;Temp;Humidity;BMP_temperature;BMP_pressure;BME280_temperature;BME280_humidity;BME280_pressure;Samples;Min_cycle;Max_cycle;Signal;HPM_P1;HPM_P2
2022/08/24 00:00:34;;;;;;;72.35;48.22;;;;;;;20.40;57.51;101134.88;5092974;28;20499;-79
2022/08/24 00:03:02;;;;;;;55.80;34.60;;;;;;;20.54;57.12;101168.25;5092610;28;20055;-79
2022/08/24 00:05:29;;;;;;;61.78;41.65;;;;;;;20.58;57.42;101162.03;5092628;28;20052;-77
2022/08/24 00:07:56;;;;;;;67.25;45.45;;;;;;;20.51;57.43;101147.06;5091477;28;20066;-78
2022/08/24 00:10:25;;;;;;;74.43;48.25;;;;;;;20.56;57.70;101163.78;5092488;28;20125;-77
2022/08/24 00:12:52;;;;;;;54.65;38.88;;;;;;;20.51;57.13;101163.00;5092367;28;20075;-79
2022/08/24 00:15:20;;;;;;;72.97;49.60;;;;;;;20.48;57.83;101157.72;5096197;28;20064;-78
2022/08/24 00:17:47;;;;;;;73.38;47.42;;;;;;;20.47;57.80;101154.22;5096560;28;20083;-78
2022/08/24 00:20:14;;;;;;;48.97;33.80;;;;;;;20.45;57.05;101162.19;5096644;28;20499;-77
2022/08/24 00:22:42;;;;;;;73.78;47.28;;;;;;;20.49;57.46;101157.72;5096683;28;20579;-78
2022/08/24 00:25:11;;;;;;;75.15;50.83;;;;;;;20.46;57.81;101168.41;5096507;28;20048;-78
2022/08/24 00:27:39;;;;;;;81.38;52.60;;;;;;;20.35;58.03;101162.38;5096502;28;20060;-77
2022/08/24 00:30:10;;;;;;;69.57;48.53;;;;;;;20.30;57.99;101165.09;5096190;28;20419;-79
2022/08/24 00:32:37;;;;;;;70.68;46.38;;;;;;;20.28;58.02;101174.00;5096550;28;20064;-80
2022/08/24 00:35:06;;;;;;;64.70;40.97;;;;;;;20.17;57.92;101156.47;5100384;28;20111;-77
2022/08/24 00:37:34;;;;;;;79.88;53.65;;;;;;;20.03;58.40;101154.03;5101400;28;20066;-77
2022/08/24 00:40:05;;;;;;;77.03;52.17;;;;;;;20.10;58.55;101165.41;5096479;28;20113;-79
2022/08/24 00:42:32;;;;;;;82.63;53.75;;;;;;;20.06;58.79;101169.03;5078371;28;20056;-78
2022/08/24 00:44:59;;;;;;;79.45;54.33;;;;;;;20.02;59.04;101168.19;5078045;28;20055;-78
2022/08/24 00:47:32;;;;;;;78.85;54.42;;;;;;;19.80;59.40;101143.75;5096537;28;20044;-77
2022/08/24 00:50:04;;;;;;;82.60;55.60;;;;;;;19.89;59.41;101179.00;5078003;28;20047;-78
2022/08/24 00:52:42;;;;;;;83.05;55.88;;;;;;;19.87;59.53;101186.09;5078046;28;20062;-77
2022/08/24 00:55:14;;;;;;;80.90;55.53;;;;;;;19.79;59.74;101170.31;5077923;28;20075;-77
2022/08/24 00:57:45;;;;;;;80.32;57.28;;;;;;;19.77;59.76;101186.22;5095761;28;20159;-78
2022/08/24 01:00:17;;;;;;;76.45;54.63;;;;;;;19.63;60.00;101166.94;5096181;28;20044;-76
2022/08/24 01:02:50;;;;;;;85.07;55.92;;;;;;;19.69;60.26;101177.47;5096131;28;20055;-78
2022/08/24 01:05:18;;;;;;;82.97;55.47;;;;;;;19.65;60.32;101170.44;5096092;28;20559;-78
2022/08/24 01:07:49;;;;;;;80.70;54.95;;;;;;;19.63;60.41;101178.41;5095918;28;20142;-78
2022/08/24 01:10:23;;;;;;;78.07;54.08;;;;;;;19.60;60.37;101183.78;5096101;28;20511;-78
2022/08/24 01:13:00;;;;;;;80.78;54.80;;;;;;;19.57;60.38;101185.56;5095639;28;20070;-78
2022/08/24 01:15:29;;;;;;;78.60;55.30;;;;;;;19.46;60.62;101171.59;5095775;28;20056;-77
2022/08/24 01:20:51;;;;;;;79.28;53.88;;;;;;;19.44;60.94;101185.75;5077663;28;20066;-78
2022/08/24 01:23:46;;;;;;;81.38;53.75;;;;;;;19.31;60.72;101177.94;5077687;28;20052;-79
2022/08/24 01:26:38;;;;;;;77.47;52.83;;;;;;;19.37;60.98;101180.53;5069136;28;20055;-77
2022/08/24 01:29:12;;;;;;;76.85;50.88;;;;;;;19.35;60.87;101182.31;5095328;28;20056;-77
2022/08/24 01:31:40;;;;;;;77.80;50.10;;;;;;;19.38;60.79;101206.13;5095610;28;20051;-78
2022/08/24 01:34:07;;;;;;;73.40;50.78;;;;;;;19.22;60.65;101165.69;5095249;28;20048;-77
2022/08/24 01:36:47;;;;;;;75.53;53.60;;;;;;;19.34;60.82;101185.88;5076978;28;20432;-76
2022/08/24 01:39:20;;;;;;;74.38;51.63;;;;;;;19.31;60.99;101191.19;5077292;28;20499;-79
2022/08/24 01:41:47;;;;;;;78.47;51.65;;;;;;;19.28;61.06;101191.25;5077231;28;20059;-78
2022/08/24 01:44:14;;;;;;;68.20;48.10;;;;;;;19.28;60.95;101183.28;5095270;28;20109;-78
2022/08/24 01:46:47;;;;;;;59.80;40.65;;;;;;;19.26;60.36;101182.44;5077155;28;20054;-78
2022/08/24 01:49:15;;;;;;;62.28;40.58;;;;;;;19.34;60.10;101191.19;5077510;28;20086;-78
2022/08/24 01:51:44;;;;;;;53.45;35.70;;;;;;;19.39;59.76;101184.91;5093456;28;20048;-78
2022/08/24 01:54:13;;;;;;;53.43;34.10;;;;;;;19.39;59.42;101178.75;5092963;28;20149;-78
2022/08/24 01:56:40;;;;;;;59.35;39.40;;;;;;;19.43;59.91;101186.63;5076653;28;20087;-78
2022/08/24 01:59:11;;;;;;;54.13;35.88;;;;;;;19.46;59.19;101192.78;5059973;28;20435;-77
2022/08/24 02:01:44;;;;;;;58.45;41.05;;;;;;;19.24;59.66;101146.22;5079519;28;20062;-78
2022/08/24 02:04:12;;;;;;;52.80;34.33;;;;;;;19.45;59.31;101189.28;5095790;28;20143;-77
2022/08/24 02:06:46;;;;;;;69.72;47.55;;;;;;;18.81;59.56;101077.88;5096347;28;20078;-76
2022/08/24 02:09:15;;;;;;;68.00;46.65;;;;;;;19.43;59.72;101194.56;5077597;28;20060;-78
2022/08/24 02:11:42;;;;;;;56.00;39.28;;;;;;;19.39;59.50;101192.84;5076664;28;20044;-76
2022/08/24 02:14:12;;;;;;;40.00;26.05;;;;;;;19.35;58.93;101188.50;5094531;28;20131;-78
2022/08/24 02:16:40;;;;;;;37.78;24.60;;;;;;;19.36;58.46;101184.97;5077026;28;20174;-77
2022/08/24 02:19:07;;;;;;;43.03;29.08;;;;;;;19.43;58.62;101191.94;5059715;28;20052;-77
2022/08/24 02:21:34;;;;;;;43.55;27.75;;;;;;;19.48;58.27;101199.81;5094743;28;20052;-78
2022/08/24 02:24:02;;;;;;;45.33;28.17;;;;;;;19.51;58.38;101198.91;5076390;28;20056;-78
2022/08/24 02:26:30;;;;;;;55.88;36.88;;;;;;;19.48;58.81;101204.25;5076469;28;20047;-77
2022/08/24 02:28:58;;;;;;;48.67;33.00;;;;;;;19.44;58.85;101200.75;5075875;28;20052;-78
2022/08/24 02:31:30;;;;;;;58.53;36.22;;;;;;;19.36;58.92;101184.97;5076800;28;20068;-78
2022/08/24 02:33:58;;;;;;;51.50;34.95;;;;;;;19.49;58.71;101203.34;5076156;28;20135;-78
2022/08/24 02:36:25;;;;;;;37.30;26.08;;;;;;;19.46;58.07;101193.66;5076186;28;20560;-77
2022/08/24 02:38:56;;;;;;;42.95;27.05;;;;;;;19.62;57.56;101203.19;5075187;28;20062;-77
2022/08/24 02:41:24;;;;;;;38.33;24.98;;;;;;;19.60;57.19;101183.78;5076211;28;20048;-77
2022/08/24 02:43:53;;;;;;;39.15;24.80;;;;;;;19.65;56.73;101181.94;5076004;28;20056;-78
2022/08/24 02:46:24;;;;;;;40.20;28.08;;;;;;;19.80;56.69;101196.78;5094267;28;20142;-77
2022/08/24 02:48:52;;;;;;;39.33;23.63;;;;;;;19.83;56.31;101196.75;5075983;28;20056;-78
2022/08/24 02:51:37;;;;;;;36.50;22.63;;;;;;;19.80;56.33;101204.75;5094304;28;20056;-77
2022/08/24 02:54:18;;;;;;;41.55;26.33;;;;;;;19.91;56.31;101204.59;5075796;28;20427;-77
2022/08/24 02:56:48;;;;;;;39.28;24.00;;;;;;;19.96;56.03;101208.06;5076017;28;20052;-78
2022/08/24 02:59:16;;;;;;;33.15;22.40;;;;;;;20.02;55.65;101210.59;5072270;28;20060;-77
2022/08/24 03:01:44;;;;;;;36.63;22.55;;;;;;;20.03;55.34;101217.69;5072648;28;20052;-77
2022/08/24 03:04:12;;;;;;;51.92;33.17;;;;;;;20.04;55.89;101200.00;5072408;28;20135;-78
2022/08/24 03:06:39;;;;;;;43.67;27.63;;;;;;;20.20;55.41;101212.13;5072959;28;20122;-77
2022/08/24 03:09:07;;;;;;;36.03;20.80;;;;;;;20.09;54.98;101184.91;5071772;28;20064;-78
2022/08/24 03:11:34;;;;;;;37.95;22.60;;;;;;;20.36;54.71;101215.41;5072456;28;20106;-78
2022/08/24 03:14:02;;;;;;;37.22;24.73;;;;;;;20.24;54.54;101176.72;5073202;28;20052;-77
2022/08/24 03:16:30;;;;;;;45.83;24.88;;;;;;;20.61;54.15;101209.75;5073426;28;20098;-77
2022/08/24 03:18:58;;;;;;;40.20;21.70;;;;;;;20.70;53.50;101187.50;5072164;28;20056;-77
2022/08/24 03:21:27;;;;;;;39.17;20.60;;;;;;;21.00;52.67;101215.28;5072014;28;20110;-77
2022/08/24 03:23:55;;;;;;;33.70;20.48;;;;;;;21.21;51.74;101204.25;5072002;28;20052;-78
2022/08/24 03:26:22;;;;;;;31.92;19.13;;;;;;;21.37;51.05;101215.44;5072101;28;20044;-78
2022/08/24 03:28:51;;;;;;;26.83;16.08;;;;;;;22.02;49.22;101217.63;5072105;28;20165;-76
2022/08/24 03:31:19;;;;;;;28.65;16.85;;;;;;;24.22;44.38;101211.75;5071979;28;20428;-77
2022/08/24 03:33:48;;;;;;;28.77;15.13;;;;;;;26.52;39.39;101201.59;5071950;28;20056;-78
2022/08/24 03:36:16;;;;;;;26.90;15.13;;;;;;;27.85;36.50;101202.88;5072932;28;20083;-77
2022/08/24 03:38:43;;;;;;;27.50;15.27;;;;;;;28.68;34.69;101208.72;5072035;28;20048;-78
2022/08/24 03:41:11;;;;;;;27.42;14.20;;;;;;;29.33;33.20;101204.41;5071403;28;20531;-77
2022/08/24 03:43:45;;;;;;;28.52;15.85;;;;;;;29.51;33.14;101212.41;5073041;28;20064;-77
2022/08/24 03:46:21;;;;;;;22.13;16.05;;;;;;;28.09;35.27;101216.06;5071708;28;20062;-77
2022/08/24 03:48:54;;;;;;;24.45;15.60;;;;;;;26.73;37.62;101199.84;5071671;28;20083;-78
2022/08/24 03:51:25;;;;;;;24.02;15.25;;;;;;;26.25;38.55;101219.69;5072574;28;20056;-78
2022/08/24 03:53:56;;;;;;;23.95;15.35;;;;;;;25.84;39.06;101215.00;5073144;28;20052;-76
2022/08/24 03:56:26;;;;;;;22.15;14.48;;;;;;;25.77;39.52;101220.63;5072658;28;20056;-78
2022/08/24 03:58:54;;;;;;;21.75;14.90;;;;;;;25.71;39.26;101219.09;5072140;28;20074;-76
2022/08/24 04:01:25;;;;;;;22.80;15.50;;;;;;;25.40;39.52;101171.22;5072015;28;20054;-77
2022/08/24 04:03:54;;;;;;;24.70;15.18;;;;;;;25.51;39.72;101214.47;5071478;28;20048;-78
2022/08/24 04:06:25;;;;;;;22.95;14.73;;;;;;;25.54;39.90;101212.56;5070606;28;20492;-79
2022/08/24 04:08:53;;;;;;;33.38;16.80;;;;;;;25.46;40.26;101193.25;5072541;28;20558;-77
2022/08/24 04:11:23;;;;;;;20.33;14.23;;;;;;;25.56;39.68;101212.53;5071451;28;20050;-78
2022/08/24 04:13:55;;;;;;;22.50;14.70;;;;;;;25.61;39.91;101229.25;5073490;28;20052;-79
2022/08/24 04:16:24;;;;;;;25.45;16.70;;;;;;;25.58;40.85;101215.16;5071745;28;20444;-77
2022/08/24 04:19:13;;;;;;;26.65;15.35;;;;;;;25.60;40.16;101219.50;5071811;28;20049;-79
2022/08/24 04:21:43;;;;;;;26.67;15.13;;;;;;;25.67;40.10;101218.31;5076250;28;20424;-76
2022/08/24 04:24:11;;;;;;;21.90;14.70;;;;;;;25.79;39.67;101230.38;5079335;28;20135;-80
2022/08/24 04:26:40;;;;;;;25.95;12.98;;;;;;;25.77;39.04;101217.97;5088689;28;20048;-77
2022/08/24 04:29:16;;;;;;;29.05;14.52;;;;;;;25.82;39.44;101224.03;5074120;28;20052;-77
2022/08/24 04:31:52;;;;;;;23.23;14.02;;;;;;;25.84;39.04;101223.03;5061922;28;20059;-79
2022/08/24 04:34:21;;;;;;;24.77;14.73;;;;;;;25.93;38.79;101228.06;5050822;28;20094;-79
2022/08/24 04:36:49;;;;;;;23.48;13.90;;;;;;;26.00;38.68;101241.19;5034056;28;20551;-79
2022/08/24 04:39:19;;;;;;;22.95;14.27;;;;;;;25.99;38.69;101245.69;5051014;28;20052;-80
2022/08/24 04:42:09;;;;;;;24.63;14.65;;;;;;;26.08;38.70;101229.25;5050895;28;20059;-79
2022/08/24 04:44:40;;;;;;;23.92;14.73;;;;;;;26.13;38.51;101231.75;5050405;28;20044;-78
2022/08/24 04:47:07;;;;;;;28.23;14.90;;;;;;;26.14;38.27;101229.00;5058281;28;20076;-80
2022/08/24 04:49:37;;;;;;;26.15;15.30;;;;;;;26.05;38.50;101215.09;5042936;28;20588;-78
2022/08/24 04:52:06;;;;;;;23.02;14.57;;;;;;;26.12;38.48;101230.88;5058937;28;20575;-79
2022/08/24 04:54:34;;;;;;;26.83;14.73;;;;;;;26.22;38.29;101223.38;5048544;28;20481;-79
2022/08/24 04:57:08;;;;;;;24.55;14.65;;;;;;;26.32;38.11;101223.84;5070892;28;20424;-79
2022/08/24 04:59:38;;;;;;;30.70;15.98;;;;;;;26.42;38.00;101229.72;5071080;28;20079;-81
2022/08/24 05:02:05;;;;;;;29.98;18.15;;;;;;;26.40;38.11;101213.69;5074461;28;20060;-80
2022/08/24 05:04:34;;;;;;;31.25;18.23;;;;;;;26.59;37.78;101220.97;5075049;28;20053;-78
2022/08/24 05:07:01;;;;;;;29.80;16.80;;;;;;;26.59;37.73;101213.84;5075106;28;20067;-80
2022/08/24 05:09:28;;;;;;;30.73;17.60;;;;;;;26.69;37.72;101212.50;5074924;28;20056;-80
2022/08/24 05:11:58;;;;;;;30.20;17.05;;;;;;;26.82;37.59;101225.38;5074690;28;20056;-79
2022/08/24 05:14:28;;;;;;;29.27;17.60;;;;;;;26.94;37.42;101231.09;5074495;28;20079;-80
2022/08/24 05:16:55;;;;;;;31.98;18.30;;;;;;;26.92;37.18;101224.91;5041891;28;20052;-79
2022/08/24 05:19:23;;;;;;;29.75;17.60;;;;;;;27.02;37.14;101222.72;5076613;28;20075;-79
2022/08/24 05:21:50;;;;;;;37.17;16.83;;;;;;;27.11;37.14;101227.66;5075627;28;20147;-79
2022/08/24 05:24:18;;;;;;;33.72;15.45;;;;;;;26.92;36.88;101183.84;5074150;28;20057;-78
2022/08/24 05:26:46;;;;;;;29.98;14.32;;;;;;;27.12;36.40;101212.44;5073963;28;20139;-79
2022/08/24 05:29:16;;;;;;;27.77;14.80;;;;;;;27.29;36.60;101234.03;5073871;28;20091;-79
2022/08/24 05:31:46;;;;;;;26.83;14.27;;;;;;;27.13;36.41;101196.28;5064592;28;20068;-77
2022/08/24 05:34:15;;;;;;;22.23;13.63;;;;;;;27.25;35.85;101218.16;5072162;28;20082;-77
2022/08/24 05:36:42;;;;;;;29.88;12.90;;;;;;;27.22;36.13;101229.03;5073746;28;20046;-79
2022/08/24 05:39:29;;;;;;;26.05;14.15;;;;;;;27.26;36.22;101230.66;5074757;28;20147;-78
2022/08/24 05:41:58;;;;;;;27.40;13.63;;;;;;;27.21;36.36;101221.88;5074231;28;20199;-78
2022/08/24 05:44:30;;;;;;;21.85;13.95;;;;;;;27.37;36.39;101222.97;5073448;28;20147;-78
2022/08/24 05:47:01;;;;;;;25.23;13.05;;;;;;;27.36;35.79;101229.28;5073565;28;20052;-76
2022/08/24 05:49:29;;;;;;;23.20;12.77;;;;;;;27.33;35.81;101210.66;5073509;28;20562;-76
2022/08/24 05:51:57;;;;;;;27.70;15.25;;;;;;;27.18;36.10;101191.59;5073584;28;20044;-78
2022/08/24 05:54:25;;;;;;;21.05;13.27;;;;;;;27.39;36.23;101223.78;5072970;28;20044;-77
2022/08/24 05:57:03;;;;;;;27.52;13.63;;;;;;;27.53;36.01;101224.03;5073580;28;20151;-77
2022/08/24 05:59:57;;;;;;;29.67;15.15;;;;;;;27.58;35.82;101234.56;5070649;28;20054;-78
2022/08/24 06:02:24;;;;;;;25.25;14.10;;;;;;;27.66;35.97;101227.03;5077028;28;20078;-78
2022/08/24 06:04:51;;;;;;;32.58;14.70;;;;;;;27.57;35.88;101198.78;5093687;28;20058;-79
2022/08/24 06:07:18;;;;;;;28.17;13.93;;;;;;;27.72;35.94;101226.72;5076518;28;20479;-78
2022/08/24 06:09:52;;;;;;;26.85;13.63;;;;;;;27.77;35.59;101223.84;5076687;28;20135;-78
2022/08/24 06:12:22;;;;;;;25.73;13.07;;;;;;;27.70;35.77;101217.00;5075860;28;20070;-78
2022/08/24 06:14:49;;;;;;;30.92;13.35;;;;;;;27.67;35.64;101214.47;5094518;28;20048;-78
2022/08/24 06:17:22;;;;;;;30.33;13.43;;;;;;;27.65;35.97;101222.59;5076300;28;20067;-79
2022/08/24 06:19:50;;;;;;;23.58;13.52;;;;;;;27.73;35.99;101225.78;5076213;28;20495;-78
2022/08/24 06:22:17;;;;;;;28.05;13.35;;;;;;;27.69;35.64;101197.34;5094230;28;20056;-78
2022/08/24 06:27:30;;;;;;;25.58;12.32;;;;;;;28.02;35.59;101230.75;5076137;28;20044;-77
2022/08/24 06:30:02;;;;;;;24.52;11.55;;;;;;;28.02;34.74;101220.00;5094066;28;20454;-79
2022/08/24 06:32:48;;;;;;;22.25;11.52;;;;;;;28.01;34.72;101219.16;5094206;28;20089;-78
2022/08/24 06:35:42;;;;;;;24.33;10.60;;;;;;;28.13;33.84;101226.59;5089082;28;20414;-79
2022/08/24 06:38:13;;;;;;;28.60;10.18;;;;;;;28.17;33.47;101221.94;5076703;28;20043;-79
2022/08/24 06:40:44;;;;;;;28.65;10.00;;;;;;;28.22;33.36;101217.22;5095837;28;20052;-80
2022/08/24 06:43:12;;;;;;;24.83;9.50;;;;;;;28.18;33.38;101186.97;5093951;28;20051;-77
2022/08/24 06:45:52;;;;;;;24.30;9.05;;;;;;;28.37;32.91;101213.78;5075730;28;20087;-78
2022/08/24 06:48:24;;;;;;;24.42;8.35;;;;;;;28.47;32.64;101224.94;5075615;28;20052;-78
2022/08/24 06:50:53;;;;;;;21.05;7.13;;;;;;;28.44;31.49;101206.28;5075754;28;20102;-78
2022/08/24 06:53:20;;;;;;;18.17;7.33;;;;;;;28.50;32.08;101207.81;5093748;28;20143;-78
2022/08/24 06:55:57;;;;;;;16.77;7.50;;;;;;;28.55;31.66;101185.16;5075873;28;20286;-79
2022/08/24 06:58:27;;;;;;;17.20;7.20;;;;;;;28.74;31.26;101198.53;5075544;28;20056;-79
2022/08/24 07:00:55;;;;;;;13.68;6.18;;;;;;;28.77;30.29;101217.16;5075746;28;20048;-80
2022/08/24 07:03:24;;;;;;;15.93;5.78;;;;;;;28.80;30.08;101205.38;5092523;28;20052;-80
2022/08/24 07:06:05;;;;;;;12.98;5.60;;;;;;;28.88;29.61;101194.25;5075045;28;20059;-79
2022/08/24 07:08:41;;;;;;;10.60;5.32;;;;;;;28.94;29.33;101189.41;5093921;28;20151;-79
2022/08/24 07:11:13;;;;;;;14.57;5.88;;;;;;;29.06;29.21;101178.94;5075334;28;20051;-80
2022/08/24 07:13:45;;;;;;;12.73;5.97;;;;;;;29.16;29.07;101213.38;5093397;28;20396;-80
2022/08/24 07:16:14;;;;;;;12.65;5.75;;;;;;;29.12;28.84;101198.34;5074949;28;20052;-79
2022/08/24 07:18:43;;;;;;;18.45;7.03;;;;;;;29.20;29.09;101206.00;5074976;28;20457;-81
2022/08/24 07:21:18;;;;;;;16.80;6.20;;;;;;;29.24;29.18;101204.03;5059971;28;20117;-78
2022/08/24 07:23:48;;;;;;;13.20;6.13;;;;;;;29.27;29.22;101212.78;5073342;28;20062;-80
2022/08/24 07:26:20;;;;;;;17.13;6.75;;;;;;;29.18;29.61;101181.88;5074963;28;20048;-79
2022/08/24 07:28:53;;;;;;;11.85;6.40;;;;;;;29.36;28.37;101211.44;5075423;28;20047;-80
2022/08/24 07:31:21;;;;;;;11.73;6.00;;;;;;;29.38;28.51;101206.84;5074938;28;20113;-80
2022/08/24 07:34:07;;;;;;;13.32;6.55;;;;;;;29.25;29.21;101179.72;5074817;28;20401;-80
2022/08/24 07:36:35;;;;;;;;;;;;;;;29.23;30.04;101199.59;5093696;28;20052;-80
2022/08/24 07:39:10;;;;;;;13.65;6.72;;;;;;;29.45;29.92;101205.56;5075354;28;19928;-80
2022/08/24 07:41:41;;;;;;;20.75;7.47;;;;;;;29.57;29.63;101187.88;5074890;28;20122;-80
2022/08/24 07:44:29;;;;;;;15.73;7.10;;;;;;;29.64;29.50;101196.47;5092772;28;20059;-82
2022/08/24 07:46:57;;;;;;;13.88;5.82;;;;;;;29.76;28.53;101194.00;5074767;28;20055;-80
2022/08/24 07:49:41;;;;;;;11.05;6.55;;;;;;;29.74;28.85;101198.59;5075270;28;20048;-80
2022/08/24 07:52:09;;;;;;;13.88;6.80;;;;;;;29.57;28.96;101158.25;5074974;28;20063;-78
2022/08/24 07:54:36;;;;;;;14.43;6.72;;;;;;;29.73;29.53;101194.19;5092810;28;20043;-80
2022/08/24 07:57:05;;;;;;;10.90;6.38;;;;;;;29.63;29.23;101154.34;5092557;28;20491;-78
2022/08/24 07:59:34;;;;;;;12.10;6.53;;;;;;;29.93;28.60;101181.41;5074547;28;20059;-78
2022/08/24 08:02:04;;;;;;;9.73;4.90;;;;;;;29.92;27.89;101174.28;5074884;28;20487;-78
2022/08/24 08:04:31;;;;;;;10.48;5.03;;;;;;;29.98;27.42;101188.25;5058579;28;20086;-80
2022/08/24 08:07:02;;;;;;;11.88;5.07;;;;;;;29.86;27.36;101177.31;5074885;28;20048;-79
2022/08/24 08:09:33;;;;;;;10.20;5.03;;;;;;;29.87;27.78;101170.97;5074821;28;20142;-80
2022/08/24 08:12:00;;;;;;;8.85;5.28;;;;;;;29.73;27.89;101151.09;5074782;28;20052;-80
2022/08/24 08:14:29;;;;;;;12.43;5.20;;;;;;;30.03;27.61;101179.94;5074428;28;20058;-80
2022/08/24 08:16:56;;;;;;;12.05;4.75;;;;;;;29.95;27.23;101158.81;5074273;28;20507;-77
2022/08/24 08:19:23;;;;;;;9.90;5.05;;;;;;;30.08;27.61;101161.66;5074343;28;20055;-79
2022/08/24 08:25:13;;;;;;;7.95;3.78;;;;;;;30.05;25.90;101166.34;5010332;28;20083;-78
2022/08/24 08:27:41;;;;;;;8.77;4.10;;;;;;;30.09;26.22;101174.16;5075704;28;20491;-77
2022/08/24 08:30:14;;;;;;;10.77;4.22;;;;;;;30.13;26.14;101161.41;5076670;28;20074;-77
2022/08/24 08:32:41;;;;;;;7.60;4.30;;;;;;;30.28;25.98;101156.94;5075114;28;20117;-77
2022/08/24 08:35:09;;;;;;;10.50;4.25;;;;;;;30.41;26.07;101166.91;5077641;28;20050;-78
2022/08/24 08:37:36;;;;;;;11.95;4.57;;;;;;;30.40;25.72;101162.50;5078095;28;20130;-80
2022/08/24 08:40:17;;;;;;;11.30;4.00;;;;;;;30.47;25.23;101165.69;5061500;28;20055;-80
2022/08/24 08:43:02;;;;;;;17.65;4.38;;;;;;;30.51;24.74;101150.22;5083244;28;20056;-80
2022/08/24 08:45:42;;;;;;;14.23;4.32;;;;;;;30.61;24.15;101165.75;5080837;28;20060;-78
2022/08/24 08:49:06;;;;;;;12.90;4.40;;;;;;;30.59;24.32;101154.19;5096310;28;20480;-81
2022/08/24 08:51:56;;;;;;;;;;;;;;;30.47;25.59;101154.06;5078422;28;20489;-79
2022/08/24 08:54:26;;;;;;;8.93;3.80;;;;;;;30.65;24.68;101158.31;5077781;28;19924;-79
2022/08/24 08:57:31;;;;;;;7.45;3.80;;;;;;;30.76;24.52;101163.06;5077408;28;20396;-78
2022/08/24 09:00:14;;;;;;;5.45;3.25;;;;;;;30.55;24.01;101158.03;5095824;28;20055;-78
2022/08/24 09:03:06;;;;;;;11.50;3.60;;;;;;;30.50;23.79;101151.16;5078068;28;20044;-80
2022/08/24 09:06:11;;;;;;;9.93;3.30;;;;;;;30.56;23.80;101156.19;5096051;28;20051;-79
2022/08/24 09:09:15;;;;;;;6.65;3.40;;;;;;;30.69;23.54;101159.03;5078084;28;20072;-77
2022/08/24 09:12:08;;;;;;;9.13;3.13;;;;;;;30.76;23.22;101154.97;5077566;28;20428;-81
2022/08/24 09:15:11;;;;;;;8.15;3.08;;;;;;;30.87;22.56;101151.66;5085050;28;20052;-77
2022/08/24 09:18:05;;;;;;;15.07;3.40;;;;;;;30.82;22.53;101160.00;5085957;28;20052;-81
2022/08/24 09:20:54;;;;;;;6.75;3.40;;;;;;;30.75;22.53;101154.13;5082846;28;20569;-81
2022/08/24 09:23:28;;;;;;;6.68;3.35;;;;;;;30.81;22.39;101142.09;5095652;28;20070;-80
2022/08/24 09:26:05;;;;;;;7.63;3.58;;;;;;;30.87;22.50;101155.25;5077771;28;20067;-77
2022/08/24 09:28:51;;;;;;;10.25;3.60;;;;;;;30.81;22.40;101137.56;5077530;28;20047;-77
2022/08/24 09:31:27;;;;;;;10.43;3.78;;;;;;;30.74;22.27;101144.31;5095475;28;20048;-79
2022/08/24 09:34:16;;;;;;;5.95;3.22;;;;;;;30.80;22.03;101141.25;5095626;28;20055;-80
2022/08/24 09:37:08;;;;;;;9.70;3.10;;;;;;;30.87;22.36;101138.16;5095218;28;20051;-81
2022/08/24 09:39:40;;;;;;;7.68;3.33;;;;;;;31.01;22.51;101140.88;5095179;28;20052;-78
2022/08/24 09:42:32;;;;;;;4.72;2.90;;;;;;;30.95;22.13;101138.56;5095397;28;20078;-79
2022/08/24 09:45:24;;;;;;;9.30;3.42;;;;;;;30.94;22.15;101135.00;5077413;28;20055;-79
2022/08/24 09:48:14;;;;;;;9.48;3.50;;;;;;;31.06;22.27;101144.16;5094683;28;20064;-78
2022/08/24 09:50:48;;;;;;;7.82;3.03;;;;;;;30.96;22.12;101126.84;5095018;28;20101;-79
2022/08/24 09:53:42;;;;;;;9.85;3.10;;;;;;;30.97;21.95;101126.72;5095297;28;20060;-80
2022/08/24 09:56:26;;;;;;;10.43;3.75;;;;;;;31.06;21.29;101135.19;5095014;28;20097;-80
2022/08/24 09:59:19;;;;;;;9.02;3.13;;;;;;;30.99;20.88;101130.19;5095014;28;20158;-82
2022/08/24 10:02:11;;;;;;;6.63;3.00;;;;;;;30.97;20.72;101133.94;5077367;28;20080;-79
2022/08/24 10:05:17;;;;;;;8.00;3.00;;;;;;;31.08;21.22;101130.56;5094602;28;20056;-78
2022/08/24 10:07:54;;;;;;;7.45;2.70;;;;;;;31.21;20.31;101132.44;5094309;28;20415;-78
2022/08/24 10:10:38;;;;;;;9.10;2.80;;;;;;;31.21;20.40;101128.84;5094548;28;20056;-81
2022/08/24 10:13:35;;;;;;;7.40;3.17;;;;;;;31.14;21.10;101132.91;5095056;28;20048;-80
2022/08/24 10:16:27;;;;;;;9.10;2.90;;;;;;;31.19;21.19;101126.25;5005892;28;20130;-80
2022/08/24 10:19:42;;;;;;;8.63;3.20;;;;;;;31.17;20.84;101132.69;5094561;28;20097;-81
2022/08/24 10:22:21;;;;;;;9.55;3.42;;;;;;;31.17;21.36;101128.19;5070267;28;20055;-79
2022/08/24 10:25:22;;;;;;;8.30;2.67;;;;;;;31.20;20.23;101127.97;5094932;28;20147;-81
2022/08/24 10:28:24;;;;;;;5.38;2.38;;;;;;;31.17;19.63;101133.59;5094469;28;20409;-81
2022/08/24 10:31:03;;;;;;;2.95;2.03;;;;;;;31.11;19.39;101123.16;5082548;28;20138;-84
2022/08/24 10:34:03;;;;;;;9.98;2.28;;;;;;;31.13;19.81;101125.78;5094522;28;20066;-79
2022/08/24 10:36:48;;;;;;;7.00;2.53;;;;;;;31.13;20.32;101129.34;5094268;28;20405;-79
2022/08/24 10:39:44;;;;;;;10.48;3.05;;;;;;;31.06;20.51;101111.78;5099666;28;20052;-78
2022/08/24 10:45:25;;;;;;;5.20;2.53;;;;;;;31.12;20.64;101116.78;5094793;28;20048;-81
2022/08/24 10:48:21;;;;;;;4.88;2.42;;;;;;;31.05;20.63;101096.56;5094164;28;20423;-79
2022/08/24 10:50:51;;;;;;;4.95;2.60;;;;;;;31.22;20.86;101107.16;5082773;28;20063;-78
2022/08/24 10:53:29;;;;;;;5.90;2.30;;;;;;;31.32;20.70;101115.56;5093938;28;20052;-80
2022/08/24 10:56:06;;;;;;;6.07;2.63;;;;;;;31.37;20.40;101105.31;5094223;28;20143;-82
2022/08/24 10:59:12;;;;;;;3.63;2.72;;;;;;;31.34;20.71;101104.63;5092811;28;20071;-82
2022/08/24 11:01:39;;;;;;;7.32;2.90;;;;;;;31.36;20.91;101102.69;5056038;28;20082;-80
2022/08/24 11:04:12;;;;;;;5.97;2.63;;;;;;;31.32;21.01;101096.66;5094410;28;20052;-81
2022/08/24 11:07:03;;;;;;;5.63;2.80;;;;;;;31.33;20.94;101103.78;5095587;28;20063;-81
2022/08/24 11:09:54;;;;;;;7.28;2.88;;;;;;;31.22;20.98;101084.72;5098611;28;20052;-79
2022/08/24 11:12:30;;;;;;;6.72;2.30;;;;;;;31.28;20.41;101105.03;5077694;28;20457;-81
2022/08/24 11:15:15;;;;;;;3.47;2.45;;;;;;;31.13;20.49;101102.34;5094644;28;20048;-82
2022/08/24 11:17:57;;;;;;;8.75;2.88;;;;;;;31.19;20.65;101093.88;5093802;28;20051;-80
2022/08/24 11:20:35;;;;;;;4.95;3.08;;;;;;;31.35;20.14;101104.53;5091138;28;20056;-79
2022/08/24 11:23:13;;;;;;;6.07;1.92;;;;;;;31.29;19.77;101080.63;5091851;28;20051;-78
2022/08/24 11:25:54;;;;;;;5.22;2.15;;;;;;;31.39;20.25;101086.31;5093586;28;20059;-78
2022/08/24 11:28:37;;;;;;;7.03;2.72;;;;;;;31.31;20.14;101050.88;5094011;28;20060;-78
2022/08/24 11:31:11;;;;;;;5.95;2.17;;;;;;;31.43;20.11;101093.28;5093479;28;20055;-78
2022/08/24 11:33:49;;;;;;;4.82;2.00;;;;;;;31.46;19.98;101082.28;5093263;28;20055;-79
2022/08/24 11:36:19;;;;;;;4.38;2.17;;;;;;;31.45;19.79;101087.78;5093208;28;20052;-80
2022/08/24 11:38:48;;;;;;;3.38;2.20;;;;;;;31.51;19.70;101073.88;5093336;28;20056;-79
2022/08/24 11:41:21;;;;;;;6.40;2.10;;;;;;;31.57;19.85;101079.75;5093185;28;20063;-79
2022/08/24 11:43:48;;;;;;;4.57;2.03;;;;;;;31.62;19.75;101079.44;5092033;28;20058;-83
2022/08/24 11:46:38;;;;;;;7.70;2.67;;;;;;;31.56;20.11;101058.25;5093030;28;20458;-81
2022/08/24 11:49:24;;;;;;;7.03;2.10;;;;;;;31.67;19.75;101066.50;5093203;28;20064;-81
2022/08/24 11:52:06;;;;;;;5.22;2.08;;;;;;;31.69;19.93;101061.88;5093079;28;20475;-78
2022/08/24 11:54:54;;;;;;;5.75;1.88;;;;;;;31.51;19.73;101036.09;5092782;28;20048;-81
2022/08/24 11:57:51;;;;;;;7.90;1.98;;;;;;;31.63;19.83;101055.03;5093163;28;20052;-81
2022/08/24 12:00:22;;;;;;;3.72;1.80;;;;;;;31.68;19.37;101067.38;5093824;28;20048;-77